sensor_id;sensor_type;location;lat;lon;timestamp;P1;durP1;ratioP1;P2;durP2;ratioP2
39222;SDS011;24936;46.328;11.026;2023-06-22T00:01:47;6.68;;;3.50;;
39222;SDS011;24936;46.328;11.026;2023-06-22T00:06:38;7.13;;;3.33;;
39222;SDS011;24936;46.328;11.026;2023-06-22T00:09:04;11.52;;;3.78;;
39222;SDS011;24936;46.328;11.026;2023-06-22T00:11:29;9.45;;;3.85;;
39222;SDS011;24936;46.328;11.026;2023-06-22T00:13:57;8.88;;;3.67;;
39222;SDS011;24936;46.328;11.026;2023-06-22T00:18:48;14.25;;;3.95;;
39222;SDS011;24936;46.328;11.026;2023-06-22T00:21:14;8.50;;;4.03;;
39222;SDS011;24936;46.328;11.026;2023-06-22T00:26:04;10.02;;;3.83;;
39222;SDS011;24936;46.328;11.026;2023-06-22T00:30:55;13.80;;;4.53;;
39222;SDS011;24936;46.328;11.026;2023-06-22T00:35:46;7.93;;;4.20;;
39222;SDS011;24936;46.328;11.026;2023-06-22T00:38:12;7.28;;;3.53;;
39222;SDS011;24936;46.328;11.026;2023-06-22T00:43:03;8.23;;;3.80;;
39222;SDS011;24936;46.328;11.026;2023-06-22T00:45:29;9.25;;;4.30;;
39222;SDS011;24936;46.328;11.026;2023-06-22T00:50:24;7.55;;;4.00;;
39222;SDS011;24936;46.328;11.026;2023-06-22T00:52:52;6.53;;;3.80;;
39222;SDS011;24936;46.328;11.026;2023-06-22T00:55:21;8.02;;;4.50;;
39222;SDS011;24936;46.328;11.026;2023-06-22T00:57:47;7.95;;;3.90;;
39222;SDS011;24936;46.328;11.026;2023-06-22T01:02:42;10.35;;;4.10;;
39222;SDS011;24936;46.328;11.026;2023-06-22T01:05:10;10.73;;;4.43;;
39222;SDS011;24936;46.328;11.026;2023-06-22T01:13:04;5.25;;;3.88;;
39222;SDS011;24936;46.328;11.026;2023-06-22T01:15:34;6.18;;;3.97;;
39222;SDS011;24936;46.328;11.026;2023-06-22T01:18:05;11.85;;;4.00;;
39222;SDS011;24936;46.328;11.026;2023-06-22T01:20:34;8.75;;;3.67;;
39222;SDS011;24936;46.328;11.026;2023-06-22T01:23:09;8.15;;;3.80;;
39222;SDS011;24936;46.328;11.026;2023-06-22T01:25:37;6.25;;;3.38;;
39222;SDS011;24936;46.328;11.026;2023-06-22T01:30:45;8.85;;;3.50;;
39222;SDS011;24936;46.328;11.026;2023-06-22T01:33:13;10.57;;;3.80;;
39222;SDS011;24936;46.328;11.026;2023-06-22T01:35:40;12.10;;;3.90;;
39222;SDS011;24936;46.328;11.026;2023-06-22T01:38:06;9.57;;;4.07;;
39222;SDS011;24936;46.328;11.026;2023-06-22T01:40:33;9.98;;;4.05;;
39222;SDS011;24936;46.328;11.026;2023-06-22T01:43:00;11.35;;;4.15;;
39222;SDS011;24936;46.328;11.026;2023-06-22T01:45:27;11.80;;;4.15;;
39222;SDS011;24936;46.328;11.026;2023-06-22T01:50:19;10.45;;;3.85;;
39222;SDS011;24936;46.328;11.026;2023-06-22T01:55:10;8.35;;;3.78;;
39222;SDS011;24936;46.328;11.026;2023-06-22T02:00:03;9.20;;;4.32;;
39222;SDS011;24936;46.328;11.026;2023-06-22T02:02:36;10.38;;;4.20;;
39222;SDS011;24936;46.328;11.026;2023-06-22T02:05:11;7.05;;;4.15;;
39222;SDS011;24936;46.328;11.026;2023-06-22T02:07:47;8.38;;;4.20;;
39222;SDS011;24936;46.328;11.026;2023-06-22T02:10:17;10.75;;;4.28;;
39222;SDS011;24936;46.328;11.026;2023-06-22T02:12:46;7.38;;;4.38;;
39222;SDS011;24936;46.328;11.026;2023-06-22T02:15:13;9.60;;;3.88;;
39222;SDS011;24936;46.328;11.026;2023-06-22T02:20:18;10.30;;;4.22;;
39222;SDS011;24936;46.328;11.026;2023-06-22T02:22:44;6.50;;;3.80;;
39222;SDS011;24936;46.328;11.026;2023-06-22T02:27:35;8.13;;;4.03;;
39222;SDS011;24936;46.328;11.026;2023-06-22T02:32:25;7.93;;;4.28;;
39222;SDS011;24936;46.328;11.026;2023-06-22T02:37:17;6.90;;;4.00;;
39222;SDS011;24936;46.328;11.026;2023-06-22T02:42:08;9.68;;;4.10;;
39222;SDS011;24936;46.328;11.026;2023-06-22T02:44:35;9.48;;;4.25;;
39222;SDS011;24936;46.328;11.026;2023-06-22T02:49:27;7.85;;;4.18;;
39222;SDS011;24936;46.328;11.026;2023-06-22T02:54:18;7.60;;;4.28;;
39222;SDS011;24936;46.328;11.026;2023-06-22T02:59:10;7.78;;;4.20;;
39222;SDS011;24936;46.328;11.026;2023-06-22T03:01:36;7.75;;;4.63;;
39222;SDS011;24936;46.328;11.026;2023-06-22T03:04:08;8.25;;;4.32;;
39222;SDS011;24936;46.328;11.026;2023-06-22T03:06:34;8.93;;;4.20;;
39222;SDS011;24936;46.328;11.026;2023-06-22T03:11:27;7.00;;;4.10;;
39222;SDS011;24936;46.328;11.026;2023-06-22T03:13:52;10.75;;;4.47;;
39222;SDS011;24936;46.328;11.026;2023-06-22T03:18:44;7.95;;;4.78;;
39222;SDS011;24936;46.328;11.026;2023-06-22T03:23:34;9.05;;;4.28;;
39222;SDS011;24936;46.328;11.026;2023-06-22T03:28:26;6.45;;;4.32;;
39222;SDS011;24936;46.328;11.026;2023-06-22T03:33:16;10.75;;;4.50;;
39222;SDS011;24936;46.328;11.026;2023-06-22T03:38:07;8.18;;;4.32;;
39222;SDS011;24936;46.328;11.026;2023-06-22T03:42:58;7.65;;;3.95;;
39222;SDS011;24936;46.328;11.026;2023-06-22T03:47:49;6.57;;;3.85;;
39222;SDS011;24936;46.328;11.026;2023-06-22T03:52:39;9.02;;;4.25;;
39222;SDS011;24936;46.328;11.026;2023-06-22T03:57:31;7.55;;;4.10;;
39222;SDS011;24936;46.328;11.026;2023-06-22T04:02:22;7.97;;;4.07;;
39222;SDS011;24936;46.328;11.026;2023-06-22T04:07:14;7.47;;;4.70;;
39222;SDS011;24936;46.328;11.026;2023-06-22T04:12:04;9.43;;;4.70;;
39222;SDS011;24936;46.328;11.026;2023-06-22T04:16:55;8.25;;;3.88;;
39222;SDS011;24936;46.328;11.026;2023-06-22T04:21:46;10.43;;;3.83;;
39222;SDS011;24936;46.328;11.026;2023-06-22T04:24:13;11.00;;;4.13;;
39222;SDS011;24936;46.328;11.026;2023-06-22T04:31:33;11.73;;;4.25;;
39222;SDS011;24936;46.328;11.026;2023-06-22T04:34:01;10.20;;;4.18;;
39222;SDS011;24936;46.328;11.026;2023-06-22T04:36:35;10.15;;;4.18;;
39222;SDS011;24936;46.328;11.026;2023-06-22T04:39:09;9.70;;;4.00;;
39222;SDS011;24936;46.328;11.026;2023-06-22T04:41:39;9.30;;;3.88;;
39222;SDS011;24936;46.328;11.026;2023-06-22T04:44:11;10.60;;;4.15;;
39222;SDS011;24936;46.328;11.026;2023-06-22T04:46:37;8.23;;;3.75;;
39222;SDS011;24936;46.328;11.026;2023-06-22T04:49:04;10.95;;;4.05;;
39222;SDS011;24936;46.328;11.026;2023-06-22T04:51:36;13.65;;;4.60;;
39222;SDS011;24936;46.328;11.026;2023-06-22T04:54:06;8.98;;;3.90;;
39222;SDS011;24936;46.328;11.026;2023-06-22T04:56:33;10.70;;;4.30;;
39222;SDS011;24936;46.328;11.026;2023-06-22T04:58:59;8.60;;;4.00;;
39222;SDS011;24936;46.328;11.026;2023-06-22T05:01:25;11.95;;;4.47;;
39222;SDS011;24936;46.328;11.026;2023-06-22T05:03:50;7.90;;;3.83;;
39222;SDS011;24936;46.328;11.026;2023-06-22T05:06:23;9.27;;;3.92;;
39222;SDS011;24936;46.328;11.026;2023-06-22T05:08:53;12.65;;;4.30;;
39222;SDS011;24936;46.328;11.026;2023-06-22T05:11:26;6.32;;;3.90;;
39222;SDS011;24936;46.328;11.026;2023-06-22T05:13:52;11.23;;;3.85;;
39222;SDS011;24936;46.328;11.026;2023-06-22T05:16:18;10.15;;;3.75;;
39222;SDS011;24936;46.328;11.026;2023-06-22T05:18:49;9.68;;;4.30;;
39222;SDS011;24936;46.328;11.026;2023-06-22T05:21:17;8.68;;;4.05;;
39222;SDS011;24936;46.328;11.026;2023-06-22T05:23:42;12.90;;;3.80;;
39222;SDS011;24936;46.328;11.026;2023-06-22T05:26:08;7.10;;;3.63;;
39222;SDS011;24936;46.328;11.026;2023-06-22T05:28:35;7.47;;;3.58;;
39222;SDS011;24936;46.328;11.026;2023-06-22T05:31:00;8.68;;;4.03;;
39222;SDS011;24936;46.328;11.026;2023-06-22T05:33:26;10.95;;;3.53;;
39222;SDS011;24936;46.328;11.026;2023-06-22T05:35:51;13.60;;;4.40;;
39222;SDS011;24936;46.328;11.026;2023-06-22T05:38:17;7.90;;;3.97;;
39222;SDS011;24936;46.328;11.026;2023-06-22T05:40:42;9.90;;;3.70;;
39222;SDS011;24936;46.328;11.026;2023-06-22T05:43:07;9.65;;;4.20;;
39222;SDS011;24936;46.328;11.026;2023-06-22T05:45:33;6.95;;;3.70;;
39222;SDS011;24936;46.328;11.026;2023-06-22T05:47:58;14.32;;;5.00;;
39222;SDS011;24936;46.328;11.026;2023-06-22T05:50:24;19.10;;;4.97;;
39222;SDS011;24936;46.328;11.026;2023-06-22T05:52:49;24.98;;;4.70;;
39222;SDS011;24936;46.328;11.026;2023-06-22T05:55:14;15.02;;;4.40;;
39222;SDS011;24936;46.328;11.026;2023-06-22T05:57:40;8.52;;;4.07;;
39222;SDS011;24936;46.328;11.026;2023-06-22T06:00:06;7.90;;;3.33;;
39222;SDS011;24936;46.328;11.026;2023-06-22T06:02:35;10.82;;;3.80;;
39222;SDS011;24936;46.328;11.026;2023-06-22T06:05:01;11.57;;;4.10;;
39222;SDS011;24936;46.328;11.026;2023-06-22T06:07:27;9.15;;;3.55;;
39222;SDS011;24936;46.328;11.026;2023-06-22T06:09:53;11.07;;;4.20;;
39222;SDS011;24936;46.328;11.026;2023-06-22T06:12:18;10.77;;;3.72;;
39222;SDS011;24936;46.328;11.026;2023-06-22T06:14:44;6.65;;;3.67;;
39222;SDS011;24936;46.328;11.026;2023-06-22T06:17:09;11.38;;;4.20;;
39222;SDS011;24936;46.328;11.026;2023-06-22T06:19:35;13.00;;;7.32;;
39222;SDS011;24936;46.328;11.026;2023-06-22T06:22:00;13.93;;;4.32;;
39222;SDS011;24936;46.328;11.026;2023-06-22T06:24:26;8.98;;;4.22;;
39222;SDS011;24936;46.328;11.026;2023-06-22T06:26:51;10.48;;;3.70;;
39222;SDS011;24936;46.328;11.026;2023-06-22T06:29:16;8.77;;;3.70;;
39222;SDS011;24936;46.328;11.026;2023-06-22T06:31:42;10.43;;;4.10;;
39222;SDS011;24936;46.328;11.026;2023-06-22T06:34:07;9.50;;;4.25;;
39222;SDS011;24936;46.328;11.026;2023-06-22T06:36:33;9.60;;;4.22;;
39222;SDS011;24936;46.328;11.026;2023-06-22T06:38:58;9.75;;;3.78;;
39222;SDS011;24936;46.328;11.026;2023-06-22T06:41:24;7.93;;;4.18;;
39222;SDS011;24936;46.328;11.026;2023-06-22T06:43:49;10.45;;;3.70;;
39222;SDS011;24936;46.328;11.026;2023-06-22T06:46:15;12.15;;;4.25;;
39222;SDS011;24936;46.328;11.026;2023-06-22T06:48:40;6.68;;;3.50;;
39222;SDS011;24936;46.328;11.026;2023-06-22T06:51:06;8.82;;;4.05;;
39222;SDS011;24936;46.328;11.026;2023-06-22T06:53:34;9.90;;;4.07;;
39222;SDS011;24936;46.328;11.026;2023-06-22T06:56:00;10.93;;;4.20;;
39222;SDS011;24936;46.328;11.026;2023-06-22T06:58:26;16.45;;;4.50;;
39222;SDS011;24936;46.328;11.026;2023-06-22T07:00:51;7.15;;;3.88;;
39222;SDS011;24936;46.328;11.026;2023-06-22T07:03:17;9.93;;;4.85;;
39222;SDS011;24936;46.328;11.026;2023-06-22T07:05:42;8.57;;;3.65;;
39222;SDS011;24936;46.328;11.026;2023-06-22T07:08:07;10.40;;;3.92;;
39222;SDS011;24936;46.328;11.026;2023-06-22T07:10:33;10.07;;;4.03;;
39222;SDS011;24936;46.328;11.026;2023-06-22T07:12:58;8.30;;;3.42;;
39222;SDS011;24936;46.328;11.026;2023-06-22T07:15:24;9.30;;;3.92;;
39222;SDS011;24936;46.328;11.026;2023-06-22T07:17:50;9.32;;;3.60;;
39222;SDS011;24936;46.328;11.026;2023-06-22T07:20:15;11.15;;;3.80;;
39222;SDS011;24936;46.328;11.026;2023-06-22T07:22:42;9.43;;;3.97;;
39222;SDS011;24936;46.328;11.026;2023-06-22T07:25:09;8.57;;;3.50;;
39222;SDS011;24936;46.328;11.026;2023-06-22T07:27:39;6.97;;;3.50;;
39222;SDS011;24936;46.328;11.026;2023-06-22T07:30:08;11.02;;;3.50;;
39222;SDS011;24936;46.328;11.026;2023-06-22T07:32:34;11.18;;;3.63;;
39222;SDS011;24936;46.328;11.026;2023-06-22T07:35:00;10.35;;;3.45;;
39222;SDS011;24936;46.328;11.026;2023-06-22T07:37:27;9.00;;;3.88;;
39222;SDS011;24936;46.328;11.026;2023-06-22T07:39:53;12.13;;;4.05;;
39222;SDS011;24936;46.328;11.026;2023-06-22T07:42:23;8.95;;;3.67;;
39222;SDS011;24936;46.328;11.026;2023-06-22T07:44:49;9.10;;;3.10;;
39222;SDS011;24936;46.328;11.026;2023-06-22T07:47:16;11.32;;;3.35;;
39222;SDS011;24936;46.328;11.026;2023-06-22T07:49:44;6.72;;;3.22;;
39222;SDS011;24936;46.328;11.026;2023-06-22T07:52:10;9.80;;;3.25;;
39222;SDS011;24936;46.328;11.026;2023-06-22T07:54:36;7.72;;;3.10;;
39222;SDS011;24936;46.328;11.026;2023-06-22T07:57:01;11.05;;;3.97;;
39222;SDS011;24936;46.328;11.026;2023-06-22T07:59:27;14.50;;;3.72;;
39222;SDS011;24936;46.328;11.026;2023-06-22T08:01:52;10.85;;;4.00;;
39222;SDS011;24936;46.328;11.026;2023-06-22T08:04:17;8.98;;;4.00;;
39222;SDS011;24936;46.328;11.026;2023-06-22T08:06:43;6.97;;;3.05;;
39222;SDS011;24936;46.328;11.026;2023-06-22T08:09:08;10.30;;;3.78;;
39222;SDS011;24936;46.328;11.026;2023-06-22T08:11:34;9.48;;;3.80;;
39222;SDS011;24936;46.328;11.026;2023-06-22T08:13:59;14.30;;;3.92;;
39222;SDS011;24936;46.328;11.026;2023-06-22T08:16:25;11.50;;;5.50;;
39222;SDS011;24936;46.328;11.026;2023-06-22T08:18:50;22.00;;;5.15;;
39222;SDS011;24936;46.328;11.026;2023-06-22T08:21:16;9.10;;;3.28;;
39222;SDS011;24936;46.328;11.026;2023-06-22T08:23:41;6.40;;;3.30;;
39222;SDS011;24936;46.328;11.026;2023-06-22T08:26:07;10.07;;;3.60;;
39222;SDS011;24936;46.328;11.026;2023-06-22T08:28:32;8.45;;;4.22;;
39222;SDS011;24936;46.328;11.026;2023-06-22T08:30:59;6.82;;;3.55;;
39222;SDS011;24936;46.328;11.026;2023-06-22T08:33:25;11.00;;;3.53;;
39222;SDS011;24936;46.328;11.026;2023-06-22T08:35:53;12.10;;;3.67;;
39222;SDS011;24936;46.328;11.026;2023-06-22T08:38:20;7.22;;;3.00;;
39222;SDS011;24936;46.328;11.026;2023-06-22T08:40:45;9.57;;;3.50;;
39222;SDS011;24936;46.328;11.026;2023-06-22T08:43:12;10.80;;;3.17;;
39222;SDS011;24936;46.328;11.026;2023-06-22T08:45:38;11.95;;;3.45;;
39222;SDS011;24936;46.328;11.026;2023-06-22T08:48:03;16.75;;;2.70;;
39222;SDS011;24936;46.328;11.026;2023-06-22T08:50:29;11.85;;;3.42;;
39222;SDS011;24936;46.328;11.026;2023-06-22T08:52:54;5.90;;;2.63;;
39222;SDS011;24936;46.328;11.026;2023-06-22T08:55:19;11.75;;;3.22;;
39222;SDS011;24936;46.328;11.026;2023-06-22T08:57:45;8.75;;;2.85;;
39222;SDS011;24936;46.328;11.026;2023-06-22T09:00:10;7.95;;;3.22;;
39222;SDS011;24936;46.328;11.026;2023-06-22T09:02:43;6.50;;;3.15;;
39222;SDS011;24936;46.328;11.026;2023-06-22T09:05:10;10.90;;;3.60;;
39222;SDS011;24936;46.328;11.026;2023-06-22T09:07:35;6.82;;;3.05;;
39222;SDS011;24936;46.328;11.026;2023-06-22T09:10:01;8.40;;;3.10;;
39222;SDS011;24936;46.328;11.026;2023-06-22T09:12:29;7.03;;;3.13;;
39222;SDS011;24936;46.328;11.026;2023-06-22T09:14:55;10.25;;;3.40;;
39222;SDS011;24936;46.328;11.026;2023-06-22T09:17:21;11.30;;;3.53;;
39222;SDS011;24936;46.328;11.026;2023-06-22T09:19:47;7.50;;;3.28;;
39222;SDS011;24936;46.328;11.026;2023-06-22T09:22:13;11.15;;;3.72;;
39222;SDS011;24936;46.328;11.026;2023-06-22T09:24:39;12.07;;;3.22;;
39222;SDS011;24936;46.328;11.026;2023-06-22T09:27:05;12.38;;;3.22;;
39222;SDS011;24936;46.328;11.026;2023-06-22T09:29:30;6.32;;;3.20;;
39222;SDS011;24936;46.328;11.026;2023-06-22T09:31:58;7.75;;;3.42;;
39222;SDS011;24936;46.328;11.026;2023-06-22T09:34:24;10.25;;;3.22;;
39222;SDS011;24936;46.328;11.026;2023-06-22T09:36:50;10.05;;;2.97;;
39222;SDS011;24936;46.328;11.026;2023-06-22T09:39:17;13.05;;;3.40;;
39222;SDS011;24936;46.328;11.026;2023-06-22T09:41:43;8.52;;;2.78;;
39222;SDS011;24936;46.328;11.026;2023-06-22T09:44:09;5.50;;;2.80;;
39222;SDS011;24936;46.328;11.026;2023-06-22T09:46:34;11.00;;;2.90;;
39222;SDS011;24936;46.328;11.026;2023-06-22T09:49:00;9.77;;;3.28;;
39222;SDS011;24936;46.328;11.026;2023-06-22T09:51:25;8.30;;;3.28;;
39222;SDS011;24936;46.328;11.026;2023-06-22T09:53:51;18.83;;;3.28;;
39222;SDS011;24936;46.328;11.026;2023-06-22T09:56:18;8.20;;;3.10;;
39222;SDS011;24936;46.328;11.026;2023-06-22T09:58:44;8.13;;;3.15;;
39222;SDS011;24936;46.328;11.026;2023-06-22T10:01:11;13.30;;;4.50;;
39222;SDS011;24936;46.328;11.026;2023-06-22T10:03:39;10.23;;;3.55;;
39222;SDS011;24936;46.328;11.026;2023-06-22T10:06:06;11.13;;;3.58;;
39222;SDS011;24936;46.328;11.026;2023-06-22T10:08:32;8.25;;;3.38;;
39222;SDS011;24936;46.328;11.026;2023-06-22T10:10:57;9.00;;;2.92;;
39222;SDS011;24936;46.328;11.026;2023-06-22T10:13:23;10.98;;;2.35;;
39222;SDS011;24936;46.328;11.026;2023-06-22T10:15:48;11.68;;;3.50;;
39222;SDS011;24936;46.328;11.026;2023-06-22T10:18:16;7.35;;;2.65;;
39222;SDS011;24936;46.328;11.026;2023-06-22T10:20:42;3.67;;;2.28;;
39222;SDS011;24936;46.328;11.026;2023-06-22T10:23:08;7.47;;;2.60;;
39222;SDS011;24936;46.328;11.026;2023-06-22T10:25:33;6.60;;;2.50;;
39222;SDS011;24936;46.328;11.026;2023-06-22T10:27:59;13.38;;;2.42;;
39222;SDS011;24936;46.328;11.026;2023-06-22T10:30:25;7.88;;;2.35;;
39222;SDS011;24936;46.328;11.026;2023-06-22T10:32:50;10.88;;;2.65;;
39222;SDS011;24936;46.328;11.026;2023-06-22T10:35:16;13.07;;;2.55;;
39222;SDS011;24936;46.328;11.026;2023-06-22T10:37:44;8.18;;;2.30;;
39222;SDS011;24936;46.328;11.026;2023-06-22T10:40:11;6.40;;;2.45;;
39222;SDS011;24936;46.328;11.026;2023-06-22T10:42:38;10.90;;;2.92;;
39222;SDS011;24936;46.328;11.026;2023-06-22T10:45:04;19.30;;;2.53;;
39222;SDS011;24936;46.328;11.026;2023-06-22T10:47:29;5.95;;;2.53;;
39222;SDS011;24936;46.328;11.026;2023-06-22T10:49:55;12.02;;;2.63;;
39222;SDS011;24936;46.328;11.026;2023-06-22T10:52:20;9.18;;;2.50;;
39222;SDS011;24936;46.328;11.026;2023-06-22T10:54:46;7.22;;;2.60;;
39222;SDS011;24936;46.328;11.026;2023-06-22T10:57:11;8.88;;;2.88;;
39222;SDS011;24936;46.328;11.026;2023-06-22T10:59:37;5.57;;;2.10;;
39222;SDS011;24936;46.328;11.026;2023-06-22T11:02:02;8.85;;;2.38;;
39222;SDS011;24936;46.328;11.026;2023-06-22T11:04:27;9.88;;;2.28;;
39222;SDS011;24936;46.328;11.026;2023-06-22T11:06:53;8.18;;;2.15;;
39222;SDS011;24936;46.328;11.026;2023-06-22T11:09:18;10.77;;;2.83;;
39222;SDS011;24936;46.328;11.026;2023-06-22T11:11:50;6.70;;;2.17;;
39222;SDS011;24936;46.328;11.026;2023-06-22T11:14:18;5.97;;;2.60;;
39222;SDS011;24936;46.328;11.026;2023-06-22T11:16:44;14.25;;;2.67;;
39222;SDS011;24936;46.328;11.026;2023-06-22T11:19:09;10.50;;;3.17;;
39222;SDS011;24936;46.328;11.026;2023-06-22T11:21:35;8.85;;;3.20;;
39222;SDS011;24936;46.328;11.026;2023-06-22T11:24:00;7.80;;;2.85;;
39222;SDS011;24936;46.328;11.026;2023-06-22T11:26:26;10.32;;;3.13;;
39222;SDS011;24936;46.328;11.026;2023-06-22T11:28:54;10.23;;;3.08;;
39222;SDS011;24936;46.328;11.026;2023-06-22T11:31:20;6.07;;;3.38;;
39222;SDS011;24936;46.328;11.026;2023-06-22T11:33:45;4.10;;;2.70;;
39222;SDS011;24936;46.328;11.026;2023-06-22T11:36:12;8.75;;;3.95;;
39222;SDS011;24936;46.328;11.026;2023-06-22T11:38:39;11.98;;;3.65;;
39222;SDS011;24936;46.328;11.026;2023-06-22T11:41:05;9.35;;;3.10;;
39222;SDS011;24936;46.328;11.026;2023-06-22T11:43:31;12.57;;;2.78;;
39222;SDS011;24936;46.328;11.026;2023-06-22T11:45:57;8.80;;;3.28;;
39222;SDS011;24936;46.328;11.026;2023-06-22T11:48:23;6.65;;;3.42;;
39222;SDS011;24936;46.328;11.026;2023-06-22T11:50:49;8.02;;;2.50;;
39222;SDS011;24936;46.328;11.026;2023-06-22T11:53:15;11.43;;;3.03;;
39222;SDS011;24936;46.328;11.026;2023-06-22T11:55:42;10.00;;;3.10;;
39222;SDS011;24936;46.328;11.026;2023-06-22T11:58:09;5.68;;;2.35;;
39222;SDS011;24936;46.328;11.026;2023-06-22T12:00:34;6.70;;;2.85;;
39222;SDS011;24936;46.328;11.026;2023-06-22T12:03:00;9.55;;;2.90;;
39222;SDS011;24936;46.328;11.026;2023-06-22T12:05:25;8.60;;;2.75;;
39222;SDS011;24936;46.328;11.026;2023-06-22T12:07:53;14.45;;;3.80;;
39222;SDS011;24936;46.328;11.026;2023-06-22T12:10:19;7.53;;;2.97;;
39222;SDS011;24936;46.328;11.026;2023-06-22T12:12:45;8.20;;;2.80;;
39222;SDS011;24936;46.328;11.026;2023-06-22T12:15:10;16.65;;;2.92;;
39222;SDS011;24936;46.328;11.026;2023-06-22T12:17:36;8.55;;;3.38;;
39222;SDS011;24936;46.328;11.026;2023-06-22T12:20:01;8.02;;;2.88;;
39222;SDS011;24936;46.328;11.026;2023-06-22T12:22:30;10.73;;;3.42;;
39222;SDS011;24936;46.328;11.026;2023-06-22T12:24:59;4.97;;;2.95;;
39222;SDS011;24936;46.328;11.026;2023-06-22T12:27:24;16.02;;;3.50;;
39222;SDS011;24936;46.328;11.026;2023-06-22T12:29:50;8.98;;;2.92;;
39222;SDS011;24936;46.328;11.026;2023-06-22T12:32:15;13.70;;;3.25;;
39222;SDS011;24936;46.328;11.026;2023-06-22T12:34:41;9.02;;;2.78;;
39222;SDS011;24936;46.328;11.026;2023-06-22T12:37:08;6.60;;;3.08;;
39222;SDS011;24936;46.328;11.026;2023-06-22T12:39:34;20.50;;;3.00;;
39222;SDS011;24936;46.328;11.026;2023-06-22T12:41:59;6.85;;;2.92;;
39222;SDS011;24936;46.328;11.026;2023-06-22T12:44:25;6.47;;;2.85;;
39222;SDS011;24936;46.328;11.026;2023-06-22T12:46:50;9.23;;;2.88;;
39222;SDS011;24936;46.328;11.026;2023-06-22T12:49:16;10.57;;;2.78;;
39222;SDS011;24936;46.328;11.026;2023-06-22T12:51:42;8.63;;;2.72;;
39222;SDS011;24936;46.328;11.026;2023-06-22T12:54:09;8.52;;;2.80;;
39222;SDS011;24936;46.328;11.026;2023-06-22T12:56:35;9.82;;;2.50;;
39222;SDS011;24936;46.328;11.026;2023-06-22T12:59:01;12.88;;;3.15;;
39222;SDS011;24936;46.328;11.026;2023-06-22T13:01:27;8.95;;;2.80;;
39222;SDS011;24936;46.328;11.026;2023-06-22T13:03:53;5.40;;;2.47;;
39222;SDS011;24936;46.328;11.026;2023-06-22T13:06:19;10.05;;;2.65;;
39222;SDS011;24936;46.328;11.026;2023-06-22T13:08:44;6.57;;;2.17;;
39222;SDS011;24936;46.328;11.026;2023-06-22T13:11:10;9.55;;;2.60;;
39222;SDS011;24936;46.328;11.026;2023-06-22T13:13:35;16.55;;;3.13;;
39222;SDS011;24936;46.328;11.026;2023-06-22T13:16:01;8.52;;;2.78;;
39222;SDS011;24936;46.328;11.026;2023-06-22T13:18:27;8.60;;;2.40;;
39222;SDS011;24936;46.328;11.026;2023-06-22T13:20:52;11.50;;;2.50;;
39222;SDS011;24936;46.328;11.026;2023-06-22T13:23:19;8.57;;;2.70;;
39222;SDS011;24936;46.328;11.026;2023-06-22T13:25:48;8.18;;;2.70;;
39222;SDS011;24936;46.328;11.026;2023-06-22T13:28:13;8.20;;;2.53;;
39222;SDS011;24936;46.328;11.026;2023-06-22T13:30:40;16.25;;;2.90;;
39222;SDS011;24936;46.328;11.026;2023-06-22T13:33:07;12.75;;;2.83;;
39222;SDS011;24936;46.328;11.026;2023-06-22T13:35:33;5.95;;;2.42;;
39222;SDS011;24936;46.328;11.026;2023-06-22T13:38:00;8.07;;;2.47;;
39222;SDS011;24936;46.328;11.026;2023-06-22T13:40:25;8.15;;;2.72;;
39222;SDS011;24936;46.328;11.026;2023-06-22T13:42:51;4.78;;;2.10;;
39222;SDS011;24936;46.328;11.026;2023-06-22T13:45:16;10.90;;;2.78;;
39222;SDS011;24936;46.328;11.026;2023-06-22T13:47:44;8.18;;;2.53;;
39222;SDS011;24936;46.328;11.026;2023-06-22T13:50:09;12.10;;;2.45;;
39222;SDS011;24936;46.328;11.026;2023-06-22T13:52:35;8.73;;;2.25;;
39222;SDS011;24936;46.328;11.026;2023-06-22T13:55:01;10.13;;;2.67;;
39222;SDS011;24936;46.328;11.026;2023-06-22T13:57:27;12.57;;;2.90;;
39222;SDS011;24936;46.328;11.026;2023-06-22T13:59:53;7.63;;;3.15;;
39222;SDS011;24936;46.328;11.026;2023-06-22T14:02:18;7.50;;;2.55;;
39222;SDS011;24936;46.328;11.026;2023-06-22T14:04:44;12.75;;;3.17;;
39222;SDS011;24936;46.328;11.026;2023-06-22T14:07:09;15.15;;;2.72;;
39222;SDS011;24936;46.328;11.026;2023-06-22T14:09:35;11.00;;;2.53;;
39222;SDS011;24936;46.328;11.026;2023-06-22T14:12:04;5.43;;;2.25;;
39222;SDS011;24936;46.328;11.026;2023-06-22T14:14:31;10.65;;;2.97;;
39222;SDS011;24936;46.328;11.026;2023-06-22T14:16:58;7.30;;;2.65;;
39222;SDS011;24936;46.328;11.026;2023-06-22T14:19:23;14.40;;;2.72;;
39222;SDS011;24936;46.328;11.026;2023-06-22T14:21:49;6.55;;;2.65;;
39222;SDS011;24936;46.328;11.026;2023-06-22T14:24:14;7.93;;;2.50;;
39222;SDS011;24936;46.328;11.026;2023-06-22T14:26:40;5.05;;;2.22;;
39222;SDS011;24936;46.328;11.026;2023-06-22T14:29:05;8.18;;;2.58;;
39222;SDS011;24936;46.328;11.026;2023-06-22T14:31:31;8.48;;;2.22;;
39222;SDS011;24936;46.328;11.026;2023-06-22T14:33:57;11.18;;;2.83;;
39222;SDS011;24936;46.328;11.026;2023-06-22T14:36:22;7.30;;;2.90;;
39222;SDS011;24936;46.328;11.026;2023-06-22T14:38:48;11.30;;;2.10;;
39222;SDS011;24936;46.328;11.026;2023-06-22T14:41:14;12.00;;;2.65;;
39222;SDS011;24936;46.328;11.026;2023-06-22T14:43:45;11.00;;;1.98;;
39222;SDS011;24936;46.328;11.026;2023-06-22T14:48:45;17.98;;;3.20;;
39222;SDS011;24936;46.328;11.026;2023-06-22T14:51:11;10.00;;;2.05;;
39222;SDS011;24936;46.328;11.026;2023-06-22T14:53:36;10.52;;;2.10;;
39222;SDS011;24936;46.328;11.026;2023-06-22T14:56:02;11.32;;;2.08;;
39222;SDS011;24936;46.328;11.026;2023-06-22T14:58:31;12.57;;;2.28;;
39222;SDS011;24936;46.328;11.026;2023-06-22T15:01:03;6.22;;;1.75;;
39222;SDS011;24936;46.328;11.026;2023-06-22T15:03:33;7.53;;;1.88;;
39222;SDS011;24936;46.328;11.026;2023-06-22T15:06:00;8.23;;;2.40;;
39222;SDS011;24936;46.328;11.026;2023-06-22T15:08:26;5.93;;;2.08;;
39222;SDS011;24936;46.328;11.026;2023-06-22T15:10:52;11.98;;;1.92;;
39222;SDS011;24936;46.328;11.026;2023-06-22T15:13:18;10.93;;;2.30;;
39222;SDS011;24936;46.328;11.026;2023-06-22T15:15:45;9.30;;;2.38;;
39222;SDS011;24936;46.328;11.026;2023-06-22T15:18:12;6.43;;;2.13;;
39222;SDS011;24936;46.328;11.026;2023-06-22T15:20:38;8.10;;;2.03;;
39222;SDS011;24936;46.328;11.026;2023-06-22T15:23:05;8.52;;;2.63;;
39222;SDS011;24936;46.328;11.026;2023-06-22T15:25:31;8.40;;;2.03;;
39222;SDS011;24936;46.328;11.026;2023-06-22T15:27:57;6.30;;;2.05;;
39222;SDS011;24936;46.328;11.026;2023-06-22T15:30:22;8.40;;;2.00;;
39222;SDS011;24936;46.328;11.026;2023-06-22T15:32:48;9.13;;;1.77;;
39222;SDS011;24936;46.328;11.026;2023-06-22T15:35:14;11.50;;;2.10;;
39222;SDS011;24936;46.328;11.026;2023-06-22T15:37:41;6.20;;;2.00;;
39222;SDS011;24936;46.328;11.026;2023-06-22T15:40:07;24.85;;;2.42;;
39222;SDS011;24936;46.328;11.026;2023-06-22T15:42:33;13.55;;;2.00;;
39222;SDS011;24936;46.328;11.026;2023-06-22T15:44:58;13.00;;;2.22;;
39222;SDS011;24936;46.328;11.026;2023-06-22T15:47:24;14.38;;;2.53;;
39222;SDS011;24936;46.328;11.026;2023-06-22T15:49:49;8.30;;;2.10;;
39222;SDS011;24936;46.328;11.026;2023-06-22T15:52:15;12.95;;;1.95;;
39222;SDS011;24936;46.328;11.026;2023-06-22T15:54:43;6.85;;;2.25;;
39222;SDS011;24936;46.328;11.026;2023-06-22T15:57:12;9.65;;;1.92;;
39222;SDS011;24936;46.328;11.026;2023-06-22T15:59:40;9.82;;;2.17;;
39222;SDS011;24936;46.328;11.026;2023-06-22T16:02:06;8.90;;;2.15;;